createdAt,value
2019-05-02T00:00:19.610Z,9.43
2019-05-02T00:01:19.591Z,9.35
2019-05-02T00:02:23.954Z,9.42
2019-05-02T00:03:20.600Z,9.38
2019-05-02T00:04:21.013Z,9.40
2019-05-02T00:05:19.565Z,9.46
2019-05-02T00:06:19.586Z,9.42
2019-05-02T00:07:20.210Z,9.43
2019-05-02T00:08:19.547Z,9.42
2019-05-02T00:09:19.530Z,9.35
2019-05-02T00:10:20.059Z,9.47
2019-05-02T00:11:20.487Z,9.36
2019-05-02T00:12:19.472Z,9.39
2019-05-02T00:13:19.470Z,9.39
2019-05-02T00:14:19.475Z,9.38
2019-05-02T00:15:19.446Z,9.33
2019-05-02T00:16:19.488Z,9.35
2019-05-02T00:17:20.360Z,9.32
2019-05-02T00:18:20.420Z,9.21
2019-05-02T00:19:19.418Z,9.21
2019-05-02T00:20:21.203Z,9.26
2019-05-02T00:21:20.389Z,9.23
2019-05-02T00:22:19.370Z,9.21
2019-05-02T00:23:23.079Z,9.23
2019-05-02T00:24:20.381Z,9.23
2019-05-02T00:25:19.344Z,9.24
2019-05-02T00:26:19.410Z,9.20
2019-05-02T00:27:19.317Z,9.18
2019-05-02T00:28:19.314Z,9.29
2019-05-02T00:29:23.837Z,9.28
2019-05-02T00:30:20.359Z,9.26
2019-05-02T00:31:19.280Z,9.23
2019-05-02T00:32:22.450Z,9.24
2019-05-02T00:33:19.272Z,9.18
2019-05-02T00:34:19.248Z,9.13
2019-05-02T00:35:19.283Z,9.20
2019-05-02T00:36:19.228Z,9.21
2019-05-02T00:37:24.590Z,9.20
2019-05-02T00:38:20.213Z,9.14
2019-05-02T00:39:19.195Z,9.13
2019-05-02T00:40:20.277Z,9.14
2019-05-02T00:41:20.190Z,9.17
2019-05-02T00:42:22.497Z,9.11
2019-05-02T00:43:19.144Z,9.17
2019-05-02T00:44:19.352Z,9.13
2019-05-02T00:45:24.085Z,9.14
2019-05-02T00:46:20.120Z,9.10
2019-05-02T00:47:19.097Z,9.08
2019-05-02T00:48:22.748Z,8.98
2019-05-02T00:49:19.075Z,8.99
2019-05-02T00:50:19.096Z,8.99
2019-05-02T00:51:21.941Z,8.95
2019-05-02T00:52:20.051Z,8.91
2019-05-02T00:53:19.033Z,8.94
2019-05-02T00:54:23.945Z,8.95
2019-05-02T00:55:20.044Z,8.98
2019-05-02T00:56:19.021Z,9.01
2019-05-02T00:57:20.039Z,9.02
2019-05-02T00:58:18.991Z,9.11
2019-05-02T00:59:18.969Z,9.08
2019-05-02T01:00:19.793Z,9.10
2019-05-02T01:01:18.979Z,9.08
2019-05-02T01:02:18.985Z,9.10
2019-05-02T01:03:18.927Z,9.01
2019-05-02T01:04:23.361Z,8.96
2019-05-02T01:05:19.910Z,9.10
2019-05-02T01:06:18.915Z,9.04
2019-05-02T01:07:23.676Z,8.99
2019-05-02T01:08:19.871Z,9.01
2019-05-02T01:09:18.895Z,9.08
2019-05-02T01:10:21.288Z,8.95
2019-05-02T01:11:18.881Z,9.04
2019-05-02T01:12:26.256Z,9.02
2019-05-02T01:13:20.405Z,9.05
2019-05-02T01:14:18.809Z,9.10
2019-05-02T01:15:18.800Z,9.14
2019-05-02T01:16:20.267Z,9.05
2019-05-02T01:17:18.784Z,9.08
2019-05-02T01:18:18.777Z,9.08
2019-05-02T01:19:18.768Z,9.01
2019-05-02T01:20:22.322Z,9.10
2019-05-02T01:21:19.778Z,9.11
2019-05-02T01:22:18.725Z,9.14
2019-05-02T01:23:23.077Z,9.10
2019-05-02T01:24:18.700Z,9.05
2019-05-02T01:25:18.702Z,9.14
2019-05-02T01:26:18.684Z,9.10
2019-05-02T01:27:18.690Z,9.08
2019-05-02T01:28:18.852Z,9.08
2019-05-02T01:29:18.656Z,9.02
2019-05-02T01:30:18.648Z,9.10
2019-05-02T01:31:20.222Z,9.11
2019-05-02T01:32:18.647Z,9.11
2019-05-02T01:33:18.608Z,9.08
2019-05-02T01:34:19.380Z,9.10
2019-05-02T01:35:18.595Z,9.13
2019-05-02T01:36:18.592Z,9.04
2019-05-02T01:37:21.002Z,9.04
2019-05-02T01:38:18.550Z,9.08
2019-05-02T01:39:18.556Z,9.05
2019-05-02T01:40:19.005Z,9.05
2019-05-02T01:41:18.532Z,9.08
2019-05-02T01:42:18.552Z,9.10
2019-05-02T01:43:19.810Z,9.08
2019-05-02T01:44:19.489Z,9.17
2019-05-02T01:45:18.475Z,9.14
2019-05-02T01:46:22.245Z,9.18
2019-05-02T01:47:19.484Z,9.10
2019-05-02T01:48:18.452Z,9.08
2019-05-02T01:49:21.733Z,9.18
2019-05-02T01:50:18.430Z,9.04
2019-05-02T01:51:18.418Z,9.04
2019-05-02T01:52:18.982Z,9.04
2019-05-02T01:53:18.434Z,9.01
2019-05-02T01:54:18.396Z,8.99
2019-05-02T01:55:21.146Z,9.08
2019-05-02T01:56:18.370Z,9.14
2019-05-02T01:57:18.372Z,9.14
2019-05-02T01:58:21.020Z,9.05
2019-05-02T01:59:18.338Z,9.08
2019-05-02T02:00:18.335Z,9.04
2019-05-02T02:01:21.422Z,9.04
2019-05-02T02:02:18.299Z,9.04
2019-05-02T02:03:18.326Z,9.04
2019-05-02T02:04:20.976Z,9.04
2019-05-02T02:05:18.285Z,9.04
2019-05-02T02:06:18.258Z,8.92
2019-05-02T02:07:20.029Z,8.96
2019-05-02T02:08:18.246Z,8.94
2019-05-02T02:09:18.248Z,8.91
2019-05-02T02:10:19.771Z,8.89
2019-05-02T02:11:18.219Z,8.98
2019-05-02T02:12:18.183Z,8.89
2019-05-02T02:13:18.179Z,8.99
2019-05-02T02:14:18.678Z,8.92
2019-05-02T02:15:18.157Z,9.02
2019-05-02T02:16:18.169Z,8.96
2019-05-02T02:17:18.165Z,8.87
2019-05-02T02:18:22.261Z,8.95
2019-05-02T02:19:19.144Z,8.92
2019-05-02T02:20:18.122Z,8.89
2019-05-02T02:21:20.027Z,8.94
2019-05-02T02:22:19.083Z,8.91
2019-05-02T02:23:18.101Z,8.91
2019-05-02T02:24:21.231Z,8.86
2019-05-02T02:25:19.059Z,8.91
2019-05-02T02:26:18.047Z,8.91
2019-05-02T02:27:19.914Z,8.87
2019-05-02T02:28:19.019Z,8.96
2019-05-02T02:29:18.033Z,8.87
2019-05-02T02:30:24.650Z,8.83
2019-05-02T02:31:18.990Z,8.76
2019-05-02T02:32:20.200Z,8.77
2019-05-02T02:33:18.971Z,8.77
2019-05-02T02:34:21.150Z,8.83
2019-05-02T02:35:18.964Z,8.81
2019-05-02T02:36:29.933Z,8.80
2019-05-02T02:37:18.937Z,8.71
2019-05-02T02:38:17.921Z,8.79
2019-05-02T02:39:17.907Z,8.76
2019-05-02T02:40:17.921Z,8.77
2019-05-02T02:41:17.886Z,8.76
2019-05-02T02:42:17.878Z,8.77
2019-05-02T02:43:33.404Z,8.76
2019-05-02T02:44:18.858Z,8.74
2019-05-02T02:45:18.763Z,8.76
2019-05-02T02:46:17.823Z,8.77
2019-05-02T02:47:18.736Z,8.71
2019-05-02T02:48:17.807Z,8.70
2019-05-02T02:49:21.672Z,8.70
2019-05-02T02:50:18.814Z,8.76
2019-05-02T02:51:23.824Z,8.68
2019-05-02T02:52:18.776Z,8.71
2019-05-02T02:53:18.119Z,8.73
2019-05-02T02:54:18.748Z,8.62
2019-05-02T02:55:21.925Z,8.73
2019-05-02T02:56:18.742Z,8.70
2019-05-02T02:57:25.621Z,8.65
2019-05-02T02:58:18.705Z,8.66
2019-05-02T02:59:19.596Z,8.56
2019-05-02T03:00:18.675Z,8.53
2019-05-02T03:01:27.328Z,8.45
2019-05-02T03:02:18.673Z,8.56
2019-05-02T03:03:20.859Z,8.55
2019-05-02T03:04:18.638Z,8.53
2019-05-02T03:05:18.773Z,8.59
2019-05-02T03:06:18.643Z,8.62
2019-05-02T03:07:25.680Z,8.53
2019-05-02T03:08:18.590Z,8.61
2019-05-02T03:09:20.543Z,8.55
2019-05-02T03:10:18.577Z,8.59
2019-05-02T03:11:23.837Z,8.58
2019-05-02T03:12:18.561Z,8.55
2019-05-02T03:13:21.815Z,8.58
2019-05-02T03:14:17.535Z,8.58
2019-05-02T03:15:21.141Z,8.58
2019-05-02T03:16:18.575Z,8.58
2019-05-02T03:17:20.342Z,8.65
2019-05-02T03:18:18.496Z,8.63
2019-05-02T03:19:21.129Z,8.59
2019-05-02T03:20:18.464Z,8.58
2019-05-02T03:21:20.245Z,8.55
2019-05-02T03:22:17.464Z,8.63
2019-05-02T03:23:22.168Z,8.56
2019-05-02T03:24:18.430Z,8.55
2019-05-02T03:25:18.011Z,8.53
2019-05-02T03:26:18.412Z,8.55
2019-05-02T03:27:17.448Z,8.61
2019-05-02T03:28:20.423Z,8.58
2019-05-02T03:29:17.364Z,8.55
2019-05-02T03:30:33.094Z,8.50
2019-05-02T03:31:25.291Z,8.56
2019-05-02T03:32:31.946Z,8.56
2019-05-02T03:33:18.340Z,8.58
2019-05-02T03:34:17.315Z,8.58
2019-05-02T03:35:18.824Z,8.56
2019-05-02T03:36:28.537Z,8.55
2019-05-02T03:37:18.314Z,8.56
2019-05-02T03:38:17.313Z,8.58
2019-05-02T03:39:17.630Z,8.56
2019-05-02T03:40:17.253Z,8.58
2019-05-02T03:41:20.830Z,8.59
2019-05-02T03:42:18.255Z,8.43
2019-05-02T03:43:19.158Z,8.59
2019-05-02T03:44:25.698Z,8.52
2019-05-02T03:45:18.190Z,8.55
2019-05-02T03:46:20.640Z,8.56
2019-05-02T03:47:18.201Z,8.59
2019-05-02T03:48:18.291Z,8.68
2019-05-02T03:49:18.164Z,8.59
2019-05-02T03:51:21.465Z,8.59
2019-05-02T03:52:18.161Z,8.59
2019-05-02T03:53:24.459Z,8.59
2019-05-02T03:54:20.138Z,8.61
2019-05-02T03:55:17.116Z,8.58
2019-05-02T03:56:17.089Z,8.66
2019-05-02T03:57:17.074Z,8.59
2019-05-02T03:58:17.465Z,8.59
2019-05-02T03:59:17.046Z,8.59
2019-05-02T04:00:21.230Z,8.68
2019-05-02T04:01:18.026Z,8.62
2019-05-02T04:02:20.484Z,8.63
2019-05-02T04:03:17.034Z,8.73
2019-05-02T04:04:20.636Z,8.76
2019-05-02T04:05:16.987Z,8.74
2019-05-02T04:06:21.112Z,8.74
2019-05-02T04:07:17.952Z,8.70
2019-05-02T04:08:20.648Z,8.74
2019-05-02T04:09:17.935Z,8.79
2019-05-02T04:10:19.725Z,8.76
2019-05-02T04:11:16.923Z,8.81
2019-05-02T04:12:21.266Z,8.84
2019-05-02T04:13:16.921Z,8.74
2019-05-02T04:14:35.858Z,8.74
2019-05-02T04:15:17.880Z,8.71
2019-05-02T04:16:17.431Z,8.79
2019-05-02T04:17:16.858Z,8.79
2019-05-02T04:18:17.936Z,8.81
2019-05-02T04:19:16.833Z,8.84
2019-05-02T04:20:16.819Z,8.83
2019-05-02T04:21:24.480Z,8.81
2019-05-02T04:22:17.809Z,8.79
2019-05-02T04:23:21.339Z,8.81
2019-05-02T04:24:17.784Z,8.84
2019-05-02T04:25:16.788Z,8.80
2019-05-02T04:26:16.809Z,8.76
2019-05-02T04:27:16.755Z,8.77
2019-05-02T04:28:16.774Z,8.73
2019-05-02T04:29:16.739Z,8.76
2019-05-02T04:30:16.717Z,8.76
2019-05-02T04:31:16.701Z,8.81
2019-05-02T04:32:16.705Z,8.81
2019-05-02T04:33:16.684Z,8.89
2019-05-02T04:35:34.813Z,8.94
2019-05-02T04:36:32.640Z,8.83
2019-05-02T04:37:34.246Z,8.83
2019-05-02T04:38:44.334Z,8.76
2019-05-02T04:39:33.600Z,8.79
2019-05-02T04:40:34.915Z,8.80
2019-05-02T04:41:34.392Z,8.81
2019-05-02T04:42:32.587Z,8.89
2019-05-02T04:43:32.579Z,8.74
2019-05-02T04:44:40.719Z,8.76
2019-05-02T04:45:47.300Z,8.71
2019-05-02T04:46:33.531Z,8.73
2019-05-02T04:47:32.535Z,8.71
2019-05-02T04:48:34.528Z,8.74
2019-05-02T04:49:35.961Z,8.74
2019-05-02T04:50:33.480Z,8.71
2019-05-02T04:51:32.497Z,8.80
2019-05-02T04:52:38.375Z,8.81
2019-05-02T04:53:41.041Z,8.80
2019-05-02T04:54:33.442Z,8.76
2019-05-02T04:55:33.613Z,8.87
2019-05-02T04:56:32.425Z,8.76
2019-05-02T04:57:36.786Z,8.84
2019-05-02T04:58:36.938Z,8.73
2019-05-02T04:59:33.651Z,8.79
2019-05-02T05:00:32.374Z,8.79
2019-05-02T05:01:41.924Z,8.83
2019-05-02T05:02:36.328Z,8.81
2019-05-02T05:03:33.354Z,8.80
2019-05-02T05:04:42.487Z,8.81
2019-05-02T05:05:33.318Z,8.84
2019-05-02T05:06:32.314Z,8.74
2019-05-02T05:07:40.831Z,8.76
2019-05-02T05:08:33.303Z,8.76
2019-05-02T05:09:32.309Z,8.80
2019-05-02T05:10:40.344Z,8.81
2019-05-02T05:11:33.255Z,8.89
2019-05-02T05:12:32.438Z,8.89
2019-05-02T05:13:32.237Z,8.87
2019-05-02T05:14:39.204Z,8.77
2019-05-02T05:15:38.320Z,8.87
2019-05-02T05:16:33.203Z,8.87
2019-05-02T05:17:34.037Z,8.95
2019-05-02T05:18:32.185Z,8.86
2019-05-02T05:19:32.867Z,8.83
2019-05-02T05:20:32.163Z,8.92
2019-05-02T05:21:32.155Z,8.95
2019-05-02T05:22:36.515Z,8.94
2019-05-02T05:23:33.129Z,8.95
2019-05-02T05:24:32.934Z,9.04
2019-05-02T05:25:33.112Z,8.98
2019-05-02T05:26:33.903Z,8.91
2019-05-02T05:27:33.086Z,8.81
2019-05-02T05:28:35.054Z,8.83
2019-05-02T05:29:33.084Z,8.94
2019-05-02T05:30:32.052Z,8.91
2019-05-02T05:31:32.052Z,8.95
2019-05-02T05:32:32.034Z,8.91
2019-05-02T05:33:32.032Z,8.92
2019-05-02T05:34:32.742Z,8.94
2019-05-02T05:35:32.008Z,8.86
2019-05-02T05:36:33.970Z,9.01
2019-05-02T05:37:31.996Z,8.95
2019-05-02T05:38:33.371Z,8.98
2019-05-02T05:39:31.980Z,9.02
2019-05-02T05:40:32.309Z,9.05
2019-05-02T05:41:31.936Z,9.08
2019-05-02T05:42:33.403Z,9.04
2019-05-02T05:43:31.980Z,9.13
2019-05-02T05:44:32.846Z,9.02
2019-05-02T05:45:31.911Z,9.11
2019-05-02T05:46:33.461Z,9.20
2019-05-02T05:47:32.870Z,9.15
2019-05-02T05:48:32.298Z,9.08
2019-05-02T05:49:31.866Z,9.17
2019-05-02T05:50:32.196Z,9.11
2019-05-02T05:51:32.830Z,9.20
2019-05-02T05:52:33.164Z,9.14
2019-05-02T05:53:32.806Z,9.18
2019-05-02T05:54:33.151Z,9.17
2019-05-02T05:55:32.812Z,9.21
2019-05-02T05:56:32.430Z,9.24
2019-05-02T05:57:32.763Z,9.24
2019-05-02T05:58:31.760Z,9.23
2019-05-02T05:59:32.194Z,9.28
2019-05-02T06:00:31.753Z,9.36
2019-05-02T06:01:34.836Z,9.36
2019-05-02T06:02:31.721Z,9.40
2019-05-02T06:03:33.997Z,9.43
2019-05-02T06:04:33.395Z,9.43
2019-05-02T06:05:33.218Z,9.50
2019-05-02T06:06:32.666Z,9.53
2019-05-02T06:07:33.624Z,9.57
2019-05-02T06:08:32.646Z,9.48
2019-05-02T06:09:32.482Z,9.53
2019-05-02T06:10:31.648Z,9.61
2019-05-02T06:11:31.702Z,9.56
2019-05-02T06:12:35.377Z,9.61
2019-05-02T06:13:31.595Z,9.65
2019-05-02T06:14:34.198Z,9.56
2019-05-02T06:15:33.929Z,9.54
2019-05-02T06:16:35.187Z,9.51
2019-05-02T06:17:31.564Z,9.50
2019-05-02T06:18:31.538Z,9.50
2019-05-02T06:19:31.566Z,9.51
2019-05-02T06:20:31.955Z,9.56
2019-05-02T06:21:31.507Z,9.57
2019-05-02T06:22:31.501Z,9.72
2019-05-02T06:23:36.341Z,9.81
2019-05-02T06:24:34.026Z,9.74
2019-05-02T06:25:33.881Z,9.75
2019-05-02T06:26:32.471Z,9.75
2019-05-02T06:27:31.441Z,9.71
2019-05-02T06:28:31.440Z,9.84
2019-05-02T06:29:31.420Z,9.91
2019-05-02T06:31:32.598Z,9.94
2019-05-02T06:32:31.421Z,9.99
2019-05-02T06:33:32.407Z,10.02
2019-05-02T06:34:31.382Z,10.12
2019-05-02T06:35:31.356Z,9.97
2019-05-02T06:36:32.053Z,10.15
2019-05-02T06:37:32.331Z,10.20
2019-05-02T06:38:31.345Z,10.27
2019-05-02T06:39:31.923Z,10.36
2019-05-02T06:40:31.323Z,10.47
2019-05-02T06:41:31.322Z,10.25
2019-05-02T06:42:32.607Z,10.32
2019-05-02T06:43:31.270Z,10.32
2019-05-02T06:44:31.261Z,10.38
2019-05-02T06:45:32.368Z,10.45
2019-05-02T06:46:32.270Z,10.44
2019-05-02T06:47:31.235Z,10.42
2019-05-02T06:48:31.218Z,10.32
2019-05-02T06:49:31.206Z,10.38
2019-05-02T06:50:33.426Z,10.36
2019-05-02T06:51:32.201Z,10.25
2019-05-02T06:52:32.709Z,10.18
2019-05-02T06:53:31.167Z,10.25
2019-05-02T06:54:31.151Z,10.40
2019-05-02T06:55:36.222Z,10.48
2019-05-02T06:56:32.161Z,10.41
2019-05-02T06:57:31.146Z,10.48
2019-05-02T06:58:31.112Z,10.47
2019-05-02T06:59:31.112Z,10.40
2019-05-02T07:00:39.560Z,10.38
2019-05-02T07:01:32.243Z,10.40
2019-05-02T07:02:33.675Z,10.27
2019-05-02T07:03:31.062Z,10.30
2019-05-02T07:04:31.059Z,10.25
2019-05-02T07:05:31.041Z,10.25
2019-05-02T07:06:40.030Z,10.27
2019-05-02T07:07:36.769Z,10.23
2019-05-02T07:08:32.239Z,10.38
2019-05-02T07:09:40.523Z,10.36
2019-05-02T07:10:44.035Z,10.38
2019-05-02T07:11:33.284Z,10.38
2019-05-02T07:12:31.990Z,10.38
2019-05-02T07:13:30.960Z,10.33
2019-05-02T07:14:30.946Z,10.40
2019-05-02T07:15:33.512Z,10.34
2019-05-02T07:16:38.368Z,10.34
2019-05-02T07:17:35.236Z,10.30
2019-05-02T07:18:31.921Z,10.33
2019-05-02T07:19:30.886Z,10.40
2019-05-02T07:20:35.185Z,10.40
2019-05-02T07:21:31.872Z,10.32
2019-05-02T07:22:33.193Z,10.22
2019-05-02T07:23:31.863Z,10.17
2019-05-02T07:24:32.522Z,10.27
2019-05-02T07:25:30.818Z,10.41
2019-05-02T07:26:30.820Z,10.44
2019-05-02T07:27:33.804Z,10.41
2019-05-02T07:28:30.822Z,10.41
2019-05-02T07:29:30.786Z,10.38
2019-05-02T07:30:35.037Z,10.38
2019-05-02T07:31:31.758Z,10.40
2019-05-02T07:32:30.750Z,10.47
2019-05-02T07:33:32.252Z,10.38
2019-05-02T07:34:31.730Z,10.45
2019-05-02T07:35:30.719Z,10.40
2019-05-02T07:36:31.311Z,10.32
2019-05-02T07:37:31.704Z,10.38
2019-05-02T07:38:30.712Z,10.33
2019-05-02T07:39:30.676Z,10.33
2019-05-02T07:40:30.661Z,10.34
2019-05-02T07:41:30.649Z,10.41
2019-05-02T07:42:30.647Z,10.34
2019-05-02T07:43:30.634Z,10.40
2019-05-02T07:44:32.728Z,10.42
2019-05-02T07:45:30.609Z,10.41
2019-05-02T07:46:30.607Z,10.52
2019-05-02T07:47:34.656Z,10.60
2019-05-02T07:48:31.584Z,10.52
2019-05-02T07:49:32.270Z,10.51
2019-05-02T07:50:30.558Z,10.52
2019-05-02T07:51:30.546Z,10.55
2019-05-02T07:52:33.656Z,10.60
2019-05-02T07:53:30.519Z,10.67
2019-05-02T07:54:30.653Z,10.71
2019-05-02T07:55:30.875Z,10.66
2019-05-02T07:56:30.501Z,10.67
2019-05-02T07:57:32.251Z,10.64
2019-05-02T07:58:30.497Z,10.66
2019-05-02T07:59:30.482Z,10.61
2019-05-02T08:00:32.029Z,10.67
2019-05-02T08:01:31.455Z,10.64
2019-05-02T08:02:30.467Z,10.64
2019-05-02T08:03:33.659Z,10.68
2019-05-02T08:04:30.422Z,10.71
2019-05-02T08:05:30.391Z,10.66
2019-05-02T08:06:35.326Z,10.61
2019-05-02T08:07:34.252Z,10.61
2019-05-02T08:08:31.855Z,10.66
2019-05-02T08:09:30.665Z,10.68
2019-05-02T08:10:30.337Z,10.74
2019-05-02T08:11:32.310Z,10.64
2019-05-02T08:12:31.332Z,10.61
2019-05-02T08:13:31.479Z,10.66
2019-05-02T08:14:34.505Z,10.63
2019-05-02T08:15:31.302Z,10.66
2019-05-02T08:16:30.309Z,10.78
2019-05-02T08:17:30.265Z,10.68
2019-05-02T08:18:31.608Z,10.64
2019-05-02T08:19:30.254Z,10.66
2019-05-02T08:20:30.259Z,10.70
2019-05-02T08:21:32.504Z,10.60
2019-05-02T08:22:30.211Z,10.63
2019-05-02T08:23:30.208Z,10.70
2019-05-02T08:24:33.187Z,10.74
2019-05-02T08:25:31.215Z,10.74
2019-05-02T08:26:30.161Z,10.81
2019-05-02T08:27:34.781Z,10.70
2019-05-02T08:28:31.142Z,10.82
2019-05-02T08:29:30.817Z,10.86
2019-05-02T08:30:30.156Z,10.85
2019-05-02T08:31:30.367Z,10.82
2019-05-02T08:32:30.100Z,10.86
2019-05-02T08:33:34.729Z,10.81
2019-05-02T08:34:31.087Z,10.81
2019-05-02T08:35:30.092Z,10.79
2019-05-02T08:36:30.108Z,10.70
2019-05-02T08:37:30.074Z,10.85
2019-05-02T08:38:30.037Z,10.71
2019-05-02T08:39:33.031Z,10.68
2019-05-02T08:40:30.012Z,10.76
2019-05-02T08:41:30.018Z,10.86
2019-05-02T08:42:32.627Z,10.88
2019-05-02T08:43:30.006Z,10.97
2019-05-02T08:44:29.974Z,11.09
2019-05-02T08:45:33.125Z,11.17
2019-05-02T08:46:30.970Z,11.09
2019-05-02T08:47:30.541Z,11.06
2019-05-02T08:48:29.939Z,11.11
2019-05-02T08:49:29.922Z,11.09
2019-05-02T08:50:31.775Z,10.94
2019-05-02T08:51:29.942Z,11.04
2019-05-02T08:52:29.896Z,11.15
2019-05-02T08:53:29.899Z,11.09
2019-05-02T08:54:32.749Z,11.10
2019-05-02T08:55:30.087Z,11.14
2019-05-02T08:56:29.870Z,11.17
2019-05-02T08:57:30.182Z,11.14
2019-05-02T08:58:29.827Z,11.21
2019-05-02T08:59:29.810Z,11.35
2019-05-02T09:00:32.071Z,11.33
2019-05-02T09:01:35.194Z,11.46
2019-05-02T09:02:40.795Z,11.43
2019-05-02T09:03:38.861Z,11.39
2019-05-02T09:04:30.829Z,11.44
2019-05-02T09:05:29.761Z,11.46
2019-05-02T09:06:29.740Z,11.43
2019-05-02T09:07:31.637Z,11.42
2019-05-02T09:08:30.724Z,11.35
2019-05-02T09:09:29.711Z,11.43
2019-05-02T09:10:29.698Z,11.51
2019-05-02T09:11:29.699Z,11.57
2019-05-02T09:12:31.546Z,11.65
2019-05-02T09:13:29.723Z,11.76
2019-05-02T09:14:29.681Z,11.88
2019-05-02T09:15:31.667Z,11.95
2019-05-02T09:16:30.959Z,12.02
2019-05-02T09:17:37.779Z,11.95
2019-05-02T09:18:38.639Z,11.88
2019-05-02T09:19:34.551Z,12.04
2019-05-02T09:20:31.523Z,11.95
2019-05-02T09:21:34.183Z,11.86
2019-05-02T09:22:32.699Z,11.94
2019-05-02T09:23:33.270Z,12.02
2019-05-02T09:24:32.446Z,11.91
2019-05-02T09:25:29.530Z,11.80
2019-05-02T09:26:37.764Z,11.78
2019-05-02T09:27:31.812Z,11.94
2019-05-02T09:28:29.521Z,11.95
2019-05-02T09:29:29.512Z,11.98
2019-05-02T09:30:29.479Z,12.01
2019-05-02T09:31:29.471Z,12.10
2019-05-02T09:32:29.488Z,12.23
2019-05-02T09:33:29.488Z,12.28
2019-05-02T09:34:29.447Z,12.29
2019-05-02T09:35:29.431Z,12.39
2019-05-02T09:36:29.433Z,12.37
2019-05-02T09:37:29.405Z,12.31
2019-05-02T09:38:29.415Z,12.35
2019-05-02T09:39:32.626Z,12.29
2019-05-02T09:40:31.875Z,12.17
2019-05-02T09:41:32.449Z,12.16
2019-05-02T09:42:32.365Z,11.98
2019-05-02T09:43:34.887Z,12.01
2019-05-02T09:44:30.336Z,12.04
2019-05-02T09:45:35.802Z,12.01
2019-05-02T09:46:32.335Z,12.07
2019-05-02T09:47:33.214Z,11.94
2019-05-02T09:48:31.948Z,11.95
2019-05-02T09:49:29.289Z,11.88
2019-05-02T09:50:31.445Z,11.99
2019-05-02T09:51:29.265Z,12.20
2019-05-02T09:52:34.064Z,12.20
2019-05-02T09:53:32.201Z,12.37
2019-05-02T09:54:29.247Z,12.41
2019-05-02T09:55:29.222Z,12.35
2019-05-02T09:56:29.209Z,12.53
2019-05-02T09:57:29.205Z,12.50
2019-05-02T09:58:29.220Z,12.42
2019-05-02T09:59:30.392Z,12.46
2019-05-02T10:00:32.287Z,12.34
2019-05-02T10:01:31.696Z,12.37
2019-05-02T10:02:29.142Z,12.37
2019-05-02T10:03:29.131Z,12.41
2019-05-02T10:04:29.145Z,12.35
2019-05-02T10:05:29.110Z,12.24
2019-05-02T10:06:32.077Z,12.20
2019-05-02T10:07:29.088Z,12.23
2019-05-02T10:08:29.077Z,12.23
2019-05-02T10:09:29.078Z,12.32
2019-05-02T10:10:29.067Z,12.21
2019-05-02T10:11:29.038Z,11.98
2019-05-02T10:12:29.058Z,12.09
2019-05-02T10:13:29.027Z,12.02
2019-05-02T10:14:29.021Z,12.02
2019-05-02T10:15:29.040Z,12.10
2019-05-02T10:16:28.992Z,12.09
2019-05-02T10:17:28.978Z,12.21
2019-05-02T10:18:30.369Z,12.29
2019-05-02T10:19:29.041Z,12.31
2019-05-02T10:20:31.870Z,12.21
2019-05-02T10:21:31.702Z,12.17
2019-05-02T10:22:32.290Z,12.07
2019-05-02T10:23:31.913Z,12.10
2019-05-02T10:24:28.921Z,12.19
2019-05-02T10:25:32.810Z,12.10
2019-05-02T10:26:29.894Z,12.09
2019-05-02T10:27:28.866Z,12.01
2019-05-02T10:28:28.860Z,11.98
2019-05-02T10:29:29.904Z,12.02
2019-05-02T10:30:28.842Z,11.96
2019-05-02T10:31:35.731Z,12.01
2019-05-02T10:32:32.030Z,12.16
2019-05-02T10:33:33.505Z,12.05
2019-05-02T10:34:29.816Z,12.02
2019-05-02T10:35:36.575Z,12.12
2019-05-02T10:36:29.768Z,12.10
2019-05-02T10:37:30.567Z,12.16
2019-05-02T10:38:29.756Z,11.98
2019-05-02T10:39:34.111Z,12.13
2019-05-02T10:40:32.015Z,12.12
2019-05-02T10:41:33.509Z,12.19
2019-05-02T10:42:29.703Z,12.02
2019-05-02T10:43:28.712Z,12.01
2019-05-02T10:44:32.662Z,12.02
2019-05-02T10:45:31.715Z,12.21
2019-05-02T10:46:36.007Z,12.17
2019-05-02T10:47:29.674Z,12.28
2019-05-02T10:48:29.089Z,12.35
2019-05-02T10:49:28.654Z,12.28
2019-05-02T10:50:28.639Z,12.37
2019-05-02T10:51:28.609Z,12.46
2019-05-02T10:52:29.996Z,12.41
2019-05-02T10:53:28.585Z,12.54
2019-05-02T10:54:33.777Z,12.42
2019-05-02T10:55:29.579Z,12.45
2019-05-02T10:56:28.556Z,12.39
2019-05-02T10:57:28.545Z,12.28
2019-05-02T10:58:34.129Z,12.34
2019-05-02T10:59:29.523Z,12.38
2019-05-02T11:00:28.533Z,12.32
2019-05-02T11:01:28.500Z,12.20
2019-05-02T11:02:28.509Z,12.13
2019-05-02T11:03:28.481Z,12.19
2019-05-02T11:04:29.373Z,12.27
2019-05-02T11:05:28.483Z,12.29
2019-05-02T11:07:29.635Z,12.41
2019-05-02T11:08:28.454Z,12.45
2019-05-02T11:09:28.487Z,12.42
2019-05-02T11:10:28.466Z,12.39
2019-05-02T11:11:28.405Z,12.34
2019-05-02T11:12:40.336Z,12.38
2019-05-02T11:13:29.369Z,12.42
2019-05-02T11:14:28.365Z,12.59
2019-05-02T11:15:28.355Z,12.62
2019-05-02T11:16:28.435Z,12.74
2019-05-02T11:17:28.334Z,12.74
2019-05-02T11:18:40.321Z,12.90
2019-05-02T11:19:29.306Z,12.82
2019-05-02T11:20:28.303Z,12.78
2019-05-02T11:21:28.325Z,12.60
2019-05-02T11:22:28.282Z,12.64
2019-05-02T11:23:28.322Z,12.65
2019-05-02T11:24:28.267Z,12.65
2019-05-02T11:25:28.243Z,12.68
2019-05-02T11:26:28.254Z,12.71
2019-05-02T11:27:28.223Z,12.65
2019-05-02T11:28:28.222Z,12.67
2019-05-02T11:29:28.199Z,12.64
2019-05-02T11:30:29.217Z,12.53
2019-05-02T11:31:28.199Z,12.52
2019-05-02T11:32:28.197Z,12.53
2019-05-02T11:33:28.172Z,12.41
2019-05-02T11:34:28.156Z,12.38
2019-05-02T11:35:28.141Z,12.38
2019-05-02T11:36:28.159Z,12.46
2019-05-02T11:37:28.112Z,12.59
2019-05-02T11:38:39.557Z,12.65
2019-05-02T11:39:41.153Z,12.77
2019-05-02T11:40:29.115Z,12.83
2019-05-02T11:41:28.101Z,12.87
2019-05-02T11:42:28.106Z,12.83
2019-05-02T11:43:28.047Z,12.79
2019-05-02T11:44:28.040Z,12.79
2019-05-02T11:45:28.035Z,12.85
2019-05-02T11:46:28.042Z,12.86
2019-05-02T11:47:28.004Z,12.90
2019-05-02T11:48:27.999Z,12.90
2019-05-02T11:49:27.993Z,12.83
2019-05-02T11:50:31.966Z,12.93
2019-05-02T11:51:28.999Z,13.01
2019-05-02T11:52:35.650Z,12.90
2019-05-02T11:53:29.566Z,12.85
2019-05-02T11:54:27.977Z,12.85
2019-05-02T11:55:29.103Z,13.00
2019-05-02T11:56:27.939Z,12.93
2019-05-02T11:57:30.414Z,13.01
2019-05-02T11:58:27.888Z,12.89
2019-05-02T11:59:29.301Z,12.90
2019-05-02T12:00:27.870Z,13.05
2019-05-02T12:01:35.694Z,12.97
2019-05-02T12:02:28.866Z,12.97
2019-05-02T12:03:28.227Z,13.00
2019-05-02T12:04:27.818Z,12.89
2019-05-02T12:05:31.846Z,12.96
2019-05-02T12:06:28.835Z,12.97
2019-05-02T12:07:27.824Z,13.03
2019-05-02T12:08:27.785Z,13.01
2019-05-02T12:09:27.784Z,13.05
2019-05-02T12:10:28.046Z,13.03
2019-05-02T12:11:27.769Z,13.08
2019-05-02T12:12:32.462Z,13.05
2019-05-02T12:13:28.734Z,13.11
2019-05-02T12:14:32.866Z,13.22
2019-05-02T12:15:28.706Z,13.10
2019-05-02T12:16:27.752Z,13.11
2019-05-02T12:17:27.682Z,13.04
2019-05-02T12:18:27.678Z,13.11
2019-05-02T12:19:27.661Z,13.12
2019-05-02T12:20:28.678Z,13.01
2019-05-02T12:21:27.779Z,13.10
2019-05-02T12:22:27.657Z,13.04
2019-05-02T12:23:27.620Z,13.07
2019-05-02T12:24:27.615Z,13.04
2019-05-02T12:25:27.604Z,13.04
2019-05-02T12:26:27.620Z,13.03
2019-05-02T12:27:27.590Z,13.05
2019-05-02T12:28:27.567Z,13.12
2019-05-02T12:29:27.553Z,13.12
2019-05-02T12:30:29.013Z,13.12
2019-05-02T12:31:27.568Z,13.20
2019-05-02T12:32:27.553Z,13.11
2019-05-02T12:33:27.547Z,13.15
2019-05-02T12:34:27.507Z,13.11
2019-05-02T12:35:27.490Z,13.11
2019-05-02T12:36:27.484Z,13.05
2019-05-02T12:37:27.483Z,13.04
2019-05-02T12:38:27.451Z,13.08
2019-05-02T12:39:27.443Z,13.03
2019-05-02T12:40:27.430Z,13.04
2019-05-02T12:41:27.436Z,13.07
2019-05-02T12:42:27.870Z,13.05
2019-05-02T12:43:27.408Z,13.05
2019-05-02T12:44:27.397Z,13.26
2019-05-02T12:45:27.379Z,13.30
2019-05-02T12:46:28.569Z,13.22
2019-05-02T12:47:27.375Z,13.25
2019-05-02T12:48:27.364Z,13.25
2019-05-02T12:49:28.007Z,13.28
2019-05-02T12:50:27.331Z,13.25
2019-05-02T12:51:27.311Z,13.36
2019-05-02T12:52:27.327Z,13.49
2019-05-02T12:53:27.330Z,13.42
2019-05-02T12:54:27.288Z,13.45
2019-05-02T12:55:27.295Z,13.36
2019-05-02T12:56:28.201Z,13.45
2019-05-02T12:57:27.271Z,13.41
2019-05-02T12:58:27.261Z,13.30
2019-05-02T12:59:27.227Z,13.39
2019-05-02T13:00:27.227Z,13.41
2019-05-02T13:01:27.212Z,13.39
2019-05-02T13:02:27.213Z,13.45
2019-05-02T13:03:27.205Z,13.39
2019-05-02T13:04:27.185Z,13.45
2019-05-02T13:05:28.626Z,13.48
2019-05-02T13:06:27.179Z,13.51
2019-05-02T13:07:27.139Z,13.64
2019-05-02T13:08:27.208Z,13.64
2019-05-02T13:09:27.131Z,13.62